createdAt,value
2022-10-16T00:01:20.807Z,13.57
2022-10-16T00:03:49.134Z,13.30
2022-10-16T00:06:18.968Z,14.80
2022-10-16T00:08:46.121Z,16.13
2022-10-16T00:11:16.511Z,12.80
2022-10-16T00:13:44.830Z,10.02
2022-10-16T00:16:13.517Z,16.40
2022-10-16T00:18:41.334Z,15.20
2022-10-16T00:21:15.025Z,14.60
2022-10-16T00:23:42.331Z,9.75
2022-10-16T00:26:14.460Z,13.70
2022-10-16T00:28:41.685Z,13.65
2022-10-16T00:31:12.991Z,11.73
2022-10-16T00:33:41.151Z,13.07
2022-10-16T00:36:10.573Z,15.57
2022-10-16T00:38:38.776Z,16.90
2022-10-16T00:41:07.512Z,16.40
2022-10-16T00:43:54.628Z,12.45
2022-10-16T00:46:26.094Z,12.07
2022-10-16T00:48:55.871Z,12.67
2022-10-16T00:51:29.540Z,15.53
2022-10-16T00:53:58.595Z,14.97
2022-10-16T00:56:25.883Z,14.63
2022-10-16T00:58:53.273Z,14.77
2022-10-16T01:01:20.438Z,13.27
2022-10-16T01:03:47.678Z,14.13
2022-10-16T01:06:36.414Z,14.80
2022-10-16T01:09:11.404Z,13.80
2022-10-16T01:12:15.653Z,13.33
2022-10-16T01:14:58.084Z,15.27
2022-10-16T01:17:49.244Z,13.57
2022-10-16T01:20:33.053Z,14.43
2022-10-16T01:23:00.145Z,15.37
2022-10-16T01:25:48.927Z,16.57
2022-10-16T01:28:18.110Z,17.63
2022-10-16T01:30:47.555Z,17.83
2022-10-16T01:33:50.251Z,14.67
2022-10-16T01:36:22.729Z,19.57
2022-10-16T01:38:53.979Z,15.80
2022-10-16T01:41:27.758Z,19.17
2022-10-16T01:44:10.756Z,18.98
2022-10-16T01:46:41.235Z,17.77
2022-10-16T01:49:11.495Z,17.63
2022-10-16T01:51:38.697Z,16.97
2022-10-16T01:54:09.184Z,19.60
2022-10-16T01:56:37.814Z,18.90
2022-10-16T01:59:19.537Z,20.13
2022-10-16T02:01:53.853Z,17.80
2022-10-16T02:04:29.070Z,16.77
2022-10-16T02:06:56.473Z,19.80
2022-10-16T02:09:23.581Z,16.58
2022-10-16T02:11:53.820Z,18.27
2022-10-16T02:14:23.102Z,17.30
2022-10-16T02:16:50.256Z,16.70
2022-10-16T02:19:21.187Z,16.00
2022-10-16T02:21:57.254Z,19.23
2022-10-16T02:24:55.496Z,16.03
2022-10-16T02:27:51.350Z,16.93
2022-10-16T02:30:24.455Z,18.43
2022-10-16T02:32:53.037Z,17.10
2022-10-16T02:35:22.235Z,16.47
2022-10-16T02:37:50.963Z,17.70
2022-10-16T02:40:21.503Z,19.63
2022-10-16T02:42:53.432Z,20.17
2022-10-16T02:45:21.058Z,18.98
2022-10-16T02:47:48.170Z,17.75
2022-10-16T02:50:15.664Z,15.48
2022-10-16T02:52:42.918Z,18.87
2022-10-16T02:55:10.082Z,16.07
2022-10-16T02:57:38.188Z,16.40
2022-10-16T03:00:06.381Z,17.75
2022-10-16T03:02:33.404Z,15.43
2022-10-16T03:05:00.411Z,15.77
2022-10-16T03:07:27.661Z,20.03
2022-10-16T03:09:56.398Z,18.10
2022-10-16T03:12:23.480Z,16.92
2022-10-16T03:14:50.553Z,18.17
2022-10-16T03:17:17.928Z,18.27
2022-10-16T03:19:45.013Z,18.67
2022-10-16T03:22:12.069Z,17.40
2022-10-16T03:24:39.237Z,16.55
2022-10-16T03:27:06.442Z,18.97
2022-10-16T03:29:33.968Z,19.30
2022-10-16T03:32:01.702Z,18.53
2022-10-16T03:34:29.006Z,16.97
2022-10-16T03:36:55.898Z,17.80
2022-10-16T03:39:23.036Z,16.90
2022-10-16T03:41:51.090Z,15.83
2022-10-16T03:44:18.218Z,15.77
2022-10-16T03:46:45.059Z,19.03
2022-10-16T03:49:11.982Z,16.53
2022-10-16T03:51:39.079Z,18.37
2022-10-16T03:54:06.165Z,22.27
2022-10-16T03:56:33.085Z,18.67
2022-10-16T03:59:00.559Z,16.43
2022-10-16T04:01:27.617Z,20.43
2022-10-16T04:03:54.725Z,17.73
2022-10-16T04:06:21.668Z,18.77
2022-10-16T04:08:49.388Z,18.23
2022-10-16T04:11:16.500Z,20.70
2022-10-16T04:13:43.689Z,17.77
2022-10-16T04:16:10.806Z,21.60
2022-10-16T04:18:38.374Z,20.13
2022-10-16T04:21:07.166Z,18.20
2022-10-16T04:23:34.252Z,16.67
2022-10-16T04:26:01.646Z,18.27
2022-10-16T04:28:29.220Z,18.73
2022-10-16T04:30:56.216Z,18.23
2022-10-16T04:33:23.401Z,18.30
2022-10-16T04:35:57.640Z,18.13
2022-10-16T04:38:24.981Z,15.57
2022-10-16T04:40:51.896Z,17.90
2022-10-16T04:43:19.144Z,17.33
2022-10-16T04:45:46.390Z,20.97
2022-10-16T04:48:13.500Z,20.50
2022-10-16T04:50:40.438Z,17.40
2022-10-16T04:53:08.287Z,19.97
2022-10-16T04:55:35.255Z,18.53
2022-10-16T04:58:03.302Z,17.40
2022-10-16T05:00:30.394Z,16.47
2022-10-16T05:02:58.248Z,18.77
2022-10-16T05:05:25.345Z,20.77
2022-10-16T05:07:52.740Z,17.03
2022-10-16T05:10:20.220Z,18.70
2022-10-16T05:12:47.990Z,17.80
2022-10-16T05:15:15.281Z,16.30
2022-10-16T05:17:44.629Z,16.93
2022-10-16T05:20:13.040Z,20.00
2022-10-16T05:22:40.038Z,17.87
2022-10-16T05:25:07.446Z,24.50
2022-10-16T05:27:34.571Z,16.23
2022-10-16T05:30:02.758Z,21.30
2022-10-16T05:32:29.770Z,19.63
2022-10-16T05:34:56.654Z,18.90
2022-10-16T05:37:24.068Z,18.70
2022-10-16T05:39:51.225Z,16.97
2022-10-16T05:42:18.094Z,19.17
2022-10-16T05:44:45.315Z,19.40
2022-10-16T05:47:15.130Z,19.27
2022-10-16T05:49:42.009Z,17.90
2022-10-16T05:52:08.851Z,17.97
2022-10-16T05:54:35.850Z,17.07
2022-10-16T05:57:03.294Z,16.87
2022-10-16T05:59:30.385Z,19.10
2022-10-16T06:01:57.378Z,21.03
2022-10-16T06:04:24.566Z,18.50
2022-10-16T06:06:51.619Z,19.57
2022-10-16T06:09:18.476Z,19.93
2022-10-16T06:11:45.304Z,17.43
2022-10-16T06:14:12.191Z,20.33
2022-10-16T06:16:39.576Z,16.93
2022-10-16T06:19:09.185Z,18.33
2022-10-16T06:21:36.098Z,18.07
2022-10-16T06:24:03.397Z,16.37
2022-10-16T06:26:33.063Z,17.93
2022-10-16T06:29:00.975Z,17.93
2022-10-16T06:31:31.285Z,16.43
2022-10-16T06:33:58.768Z,15.40
2022-10-16T06:36:26.679Z,13.67
2022-10-16T06:38:54.063Z,17.93
2022-10-16T06:41:22.834Z,15.43
2022-10-16T06:43:50.668Z,15.60
2022-10-16T06:46:20.769Z,14.97
2022-10-16T06:48:48.112Z,15.87
2022-10-16T06:51:17.924Z,18.73
2022-10-16T06:54:02.414Z,15.77
2022-10-16T06:56:32.482Z,16.70
2022-10-16T06:59:00.312Z,18.63
2022-10-16T07:01:27.710Z,19.48
2022-10-16T07:03:55.059Z,18.73
2022-10-16T07:06:24.218Z,15.70
2022-10-16T07:08:52.091Z,20.95
2022-10-16T07:11:21.987Z,16.98
2022-10-16T07:13:54.413Z,17.95
2022-10-16T07:16:27.736Z,15.07
2022-10-16T07:19:02.411Z,18.60
2022-10-16T07:21:31.705Z,19.33
2022-10-16T07:24:04.163Z,14.85
2022-10-16T07:26:33.790Z,17.15
2022-10-16T07:29:01.778Z,18.08
2022-10-16T07:31:29.475Z,17.98
2022-10-16T07:33:58.695Z,16.02
2022-10-16T07:36:25.742Z,14.18
2022-10-16T07:38:55.521Z,12.82
2022-10-16T07:41:26.167Z,21.02
2022-10-16T07:43:54.288Z,16.67
2022-10-16T07:46:23.463Z,16.75
2022-10-16T07:48:50.612Z,17.88
2022-10-16T07:51:20.187Z,12.63
2022-10-16T07:53:48.058Z,12.75
2022-10-16T07:56:16.373Z,13.52
2022-10-16T07:58:43.830Z,15.18
2022-10-16T08:01:14.140Z,14.38
2022-10-16T08:03:46.301Z,11.65
2022-10-16T08:06:13.413Z,15.73
2022-10-16T08:08:40.395Z,14.38
2022-10-16T08:11:07.728Z,16.40
2022-10-16T08:13:34.825Z,12.02
2022-10-16T08:16:02.617Z,16.20
2022-10-16T08:18:29.625Z,11.63
2022-10-16T08:20:58.944Z,15.32
2022-10-16T08:23:27.216Z,12.38
2022-10-16T08:26:02.488Z,11.85
2022-10-16T08:28:29.885Z,11.85
2022-10-16T08:30:57.993Z,14.45
2022-10-16T08:33:24.822Z,13.73
2022-10-16T08:35:53.529Z,16.25
2022-10-16T08:38:21.011Z,10.93
2022-10-16T08:40:51.188Z,11.02
2022-10-16T08:43:34.583Z,14.23
2022-10-16T08:46:30.511Z,13.32
2022-10-16T08:48:59.988Z,13.32
2022-10-16T08:51:34.441Z,12.45
2022-10-16T08:54:05.486Z,11.52
2022-10-16T08:56:34.329Z,13.57
2022-10-16T08:59:03.254Z,18.00
2022-10-16T09:01:46.726Z,12.60
2022-10-16T09:05:01.720Z,13.75
2022-10-16T09:07:57.521Z,13.98
2022-10-16T09:10:36.552Z,15.23
2022-10-16T09:13:21.885Z,15.40
2022-10-16T09:16:01.829Z,12.93
2022-10-16T09:18:41.031Z,10.93
2022-10-16T09:21:15.361Z,16.63
2022-10-16T09:23:42.309Z,31.75
2022-10-16T09:26:15.119Z,14.55
2022-10-16T09:28:42.635Z,11.85
2022-10-16T09:31:18.536Z,11.95
2022-10-16T09:33:50.249Z,13.68
2022-10-16T09:36:19.135Z,13.40
2022-10-16T09:38:46.042Z,13.82
2022-10-16T09:41:20.126Z,14.10
2022-10-16T09:43:57.199Z,13.38
2022-10-16T09:46:31.219Z,14.45
2022-10-16T09:49:02.689Z,14.05
2022-10-16T09:51:36.538Z,15.48
2022-10-16T09:54:16.522Z,14.40
2022-10-16T09:56:47.367Z,13.15
2022-10-16T09:59:24.825Z,13.70
2022-10-16T10:01:54.392Z,12.95
2022-10-16T10:04:23.876Z,12.30
2022-10-16T10:06:56.424Z,16.20
2022-10-16T10:09:30.574Z,15.45
2022-10-16T10:11:59.454Z,14.00
2022-10-16T10:14:29.713Z,11.13
2022-10-16T10:17:18.076Z,13.40
2022-10-16T10:20:01.610Z,14.55
2022-10-16T10:22:42.516Z,13.00
2022-10-16T10:25:12.652Z,16.02
2022-10-16T10:27:48.213Z,12.73
2022-10-16T10:30:33.944Z,13.00
2022-10-16T10:33:28.986Z,11.90
2022-10-16T10:36:11.206Z,13.82
2022-10-16T10:38:59.687Z,13.63
2022-10-16T10:41:54.665Z,14.85
2022-10-16T10:44:27.150Z,13.95
2022-10-16T10:47:02.555Z,14.82
2022-10-16T10:49:54.150Z,13.40
2022-10-16T10:52:39.780Z,12.63
2022-10-16T10:55:44.514Z,10.75
2022-10-16T10:58:26.478Z,10.45
2022-10-16T11:00:59.136Z,14.38
2022-10-16T11:03:32.007Z,13.73
2022-10-16T11:06:09.575Z,11.30
2022-10-16T11:08:46.578Z,33.03
2022-10-16T11:11:19.409Z,12.40
2022-10-16T11:14:11.208Z,16.52
2022-10-16T11:16:46.144Z,12.18
2022-10-16T11:19:21.923Z,11.40
2022-10-16T11:22:03.886Z,12.63
2022-10-16T11:24:52.784Z,13.18
2022-10-16T11:27:35.074Z,11.98
2022-10-16T11:30:07.955Z,9.13
2022-10-16T11:33:15.711Z,10.65
2022-10-16T11:36:03.784Z,11.90
2022-10-16T11:38:49.349Z,9.38
2022-10-16T11:41:29.049Z,11.05
2022-10-16T11:44:07.427Z,8.70
2022-10-16T11:46:52.642Z,9.32
2022-10-16T11:49:29.048Z,11.57
2022-10-16T11:52:09.183Z,10.48
2022-10-16T11:55:05.156Z,11.07
2022-10-16T11:57:36.791Z,9.63
2022-10-16T12:00:15.075Z,11.80
2022-10-16T12:02:56.239Z,9.70
2022-10-16T12:05:45.393Z,10.27
2022-10-16T12:08:14.913Z,11.52
2022-10-16T12:10:45.174Z,12.88
2022-10-16T12:13:34.658Z,8.93
2022-10-16T12:16:13.809Z,10.68
2022-10-16T12:18:42.537Z,10.00
2022-10-16T12:21:10.348Z,11.02
2022-10-16T12:23:48.858Z,11.23
2022-10-16T12:26:28.558Z,12.65
2022-10-16T12:28:57.135Z,10.50
2022-10-16T12:31:25.279Z,10.27
2022-10-16T12:34:03.495Z,9.05
2022-10-16T12:36:37.622Z,11.82
2022-10-16T12:39:04.618Z,10.73
2022-10-16T12:41:36.984Z,8.73
2022-10-16T12:44:04.591Z,7.53
2022-10-16T12:46:31.372Z,9.52
2022-10-16T12:49:13.321Z,9.27
2022-10-16T12:51:41.622Z,8.90
2022-10-16T12:54:14.628Z,8.98
2022-10-16T12:57:09.119Z,7.45
2022-10-16T12:59:54.225Z,8.55
2022-10-16T13:02:33.053Z,9.30
2022-10-16T13:05:11.618Z,7.93
2022-10-16T13:07:57.274Z,10.02
2022-10-16T13:10:42.441Z,13.30
2022-10-16T13:13:27.236Z,10.15
2022-10-16T13:16:26.881Z,6.97
2022-10-16T13:18:53.678Z,10.57
2022-10-16T13:21:44.929Z,10.88
2022-10-16T13:24:21.038Z,9.50
2022-10-16T13:26:57.333Z,9.38
2022-10-16T13:29:24.702Z,9.25
2022-10-16T13:31:51.632Z,8.32
2022-10-16T13:34:22.496Z,9.18
2022-10-16T13:36:52.677Z,7.75
2022-10-16T13:39:29.553Z,5.70
2022-10-16T13:42:16.018Z,7.43
2022-10-16T13:44:52.134Z,10.48
2022-10-16T13:47:30.360Z,6.95
2022-10-16T13:50:15.362Z,6.95
2022-10-16T13:52:42.564Z,6.32
2022-10-16T13:55:17.945Z,5.65
2022-10-16T13:57:45.892Z,6.88
2022-10-16T14:00:25.552Z,7.90
2022-10-16T14:03:03.249Z,9.02
2022-10-16T14:05:30.341Z,22.73
2022-10-16T14:07:58.272Z,40.70
2022-10-16T14:10:32.170Z,80.85
2022-10-16T14:13:16.739Z,15.52
2022-10-16T14:15:50.339Z,12.48
2022-10-16T14:18:22.513Z,11.20
2022-10-16T14:20:50.621Z,10.85
2022-10-16T14:23:29.898Z,10.07
2022-10-16T14:26:16.874Z,8.15
2022-10-16T14:28:45.374Z,8.93
2022-10-16T14:31:29.173Z,7.28
2022-10-16T14:33:56.574Z,7.80
2022-10-16T14:36:24.680Z,7.38
2022-10-16T14:39:02.976Z,9.35
2022-10-16T14:41:32.169Z,7.22
2022-10-16T14:44:05.164Z,9.70
2022-10-16T14:46:37.939Z,8.07
2022-10-16T14:49:10.502Z,6.95
2022-10-16T14:51:38.556Z,7.50
2022-10-16T14:54:05.716Z,6.88
2022-10-16T14:56:43.328Z,7.90
2022-10-16T14:59:34.797Z,9.27
2022-10-16T15:02:10.299Z,8.35
2022-10-16T15:04:37.136Z,12.13
2022-10-16T15:07:03.946Z,10.52
2022-10-16T15:09:30.786Z,8.85
2022-10-16T15:11:57.673Z,8.88
2022-10-16T15:14:24.461Z,8.93
2022-10-16T15:16:51.311Z,8.35
2022-10-16T15:19:18.309Z,8.38
2022-10-16T15:21:45.181Z,13.60
2022-10-16T15:24:18.039Z,8.65
2022-10-16T15:26:47.702Z,7.90
2022-10-16T15:29:15.443Z,8.25
2022-10-16T15:31:43.736Z,9.43
2022-10-16T15:34:11.650Z,11.75
2022-10-16T15:36:39.653Z,10.40
2022-10-16T15:39:17.841Z,12.32
2022-10-16T15:41:46.205Z,14.52
2022-10-16T15:44:13.021Z,10.02
2022-10-16T15:46:39.878Z,10.82
2022-10-16T15:49:06.973Z,10.60
2022-10-16T15:51:35.061Z,11.18
2022-10-16T15:54:02.941Z,11.15
2022-10-16T15:56:31.606Z,11.30
2022-10-16T15:58:59.345Z,10.88
2022-10-16T16:01:26.760Z,13.13
2022-10-16T16:03:54.911Z,11.48
2022-10-16T16:06:23.178Z,13.00
2022-10-16T16:08:50.202Z,13.43
2022-10-16T16:11:18.461Z,11.27
2022-10-16T16:13:45.332Z,10.55
2022-10-16T16:16:14.951Z,13.88
2022-10-16T16:18:42.774Z,10.80
2022-10-16T16:21:12.104Z,12.60
2022-10-16T16:23:39.078Z,12.68
2022-10-16T16:26:13.700Z,13.45
2022-10-16T16:28:41.963Z,13.07
2022-10-16T16:31:09.586Z,13.38
2022-10-16T16:33:36.419Z,15.95
2022-10-16T16:36:11.635Z,16.77
2022-10-16T16:38:41.427Z,20.23
2022-10-16T16:41:16.878Z,17.70
2022-10-16T16:43:43.862Z,16.63
2022-10-16T16:46:11.519Z,21.98
2022-10-16T16:48:39.215Z,19.98
2022-10-16T16:51:10.933Z,21.50
2022-10-16T16:53:37.852Z,21.60
2022-10-16T16:56:06.506Z,22.58
2022-10-16T16:58:33.915Z,22.88
2022-10-16T17:01:19.291Z,26.55
2022-10-16T17:03:48.378Z,24.13
2022-10-16T17:06:15.541Z,22.27
2022-10-16T17:08:43.213Z,21.27
2022-10-16T17:11:19.220Z,23.23
2022-10-16T17:13:47.541Z,25.88
2022-10-16T17:16:15.286Z,20.45
2022-10-16T17:18:43.232Z,21.85
2022-10-16T17:21:11.190Z,20.40
2022-10-16T17:23:38.696Z,20.50
2022-10-16T17:26:07.653Z,19.70
2022-10-16T17:28:35.211Z,19.20
2022-10-16T17:31:29.853Z,19.83
2022-10-16T17:33:59.169Z,19.80
2022-10-16T17:36:29.589Z,20.33
2022-10-16T17:39:00.376Z,21.92
2022-10-16T17:41:27.589Z,21.85
2022-10-16T17:43:54.629Z,20.20
2022-10-16T17:46:23.879Z,20.10
2022-10-16T17:48:56.093Z,16.35
2022-10-16T17:51:30.917Z,18.83
2022-10-16T17:54:00.340Z,19.35
2022-10-16T17:56:28.258Z,17.27
2022-10-16T17:58:59.685Z,19.65
2022-10-16T18:01:33.573Z,18.02
2022-10-16T18:04:04.709Z,18.20
2022-10-16T18:06:32.502Z,19.60
2022-10-16T18:09:00.275Z,17.73
2022-10-16T18:11:28.227Z,17.73
2022-10-16T18:13:57.227Z,16.13
2022-10-16T18:16:25.796Z,17.27
2022-10-16T18:18:54.051Z,17.65
2022-10-16T18:21:20.903Z,16.83
2022-10-16T18:23:51.082Z,19.65
2022-10-16T18:26:20.773Z,19.55
2022-10-16T18:28:47.703Z,18.63
2022-10-16T18:31:17.329Z,17.45
2022-10-16T18:33:51.198Z,19.98
2022-10-16T18:36:29.440Z,25.73
2022-10-16T18:38:57.601Z,21.70
2022-10-16T18:41:25.606Z,19.92
2022-10-16T18:43:52.550Z,22.88
2022-10-16T18:46:21.854Z,22.92
2022-10-16T18:48:49.263Z,19.58
2022-10-16T18:51:20.604Z,21.15
2022-10-16T18:53:50.283Z,23.17
2022-10-16T18:56:19.048Z,22.60
2022-10-16T18:58:48.612Z,21.95
2022-10-16T19:01:20.975Z,19.13
2022-10-16T19:03:59.034Z,20.98
2022-10-16T19:06:26.898Z,20.70
2022-10-16T19:08:54.597Z,19.08
2022-10-16T19:11:24.699Z,20.00
2022-10-16T19:13:52.302Z,18.02
2022-10-16T19:16:21.985Z,16.52
2022-10-16T19:18:54.476Z,15.95
2022-10-16T19:21:22.121Z,18.75
2022-10-16T19:24:00.993Z,18.38
2022-10-16T19:26:29.491Z,20.02
2022-10-16T19:28:58.505Z,18.27
2022-10-16T19:31:29.153Z,17.65
2022-10-16T19:33:58.379Z,20.02
2022-10-16T19:36:27.743Z,17.10
2022-10-16T19:38:57.064Z,20.70
2022-10-16T19:41:25.174Z,17.13
2022-10-16T19:43:52.813Z,17.30
2022-10-16T19:46:23.183Z,18.92
2022-10-16T19:48:53.798Z,19.23
2022-10-16T19:51:20.729Z,15.68
2022-10-16T19:53:47.947Z,18.17
2022-10-16T19:56:22.265Z,16.27
2022-10-16T19:58:50.082Z,18.30
2022-10-16T20:01:18.138Z,18.92
2022-10-16T20:03:46.134Z,18.48
2022-10-16T20:06:13.762Z,18.35
2022-10-16T20:08:42.738Z,16.80
2022-10-16T20:11:15.258Z,20.70
2022-10-16T20:13:42.909Z,21.10
2022-10-16T20:16:12.002Z,17.83
2022-10-16T20:18:40.338Z,22.73
2022-10-16T20:21:15.067Z,20.13
2022-10-16T20:23:42.530Z,21.38
2022-10-16T20:26:12.707Z,25.02
2022-10-16T20:28:41.083Z,33.95
2022-10-16T20:31:22.710Z,29.17
2022-10-16T20:33:51.953Z,21.17
2022-10-16T20:36:20.783Z,20.60
2022-10-16T20:38:47.852Z,21.67
2022-10-16T20:41:15.951Z,21.08
2022-10-16T20:43:45.787Z,25.67
2022-10-16T20:46:15.236Z,23.90
2022-10-16T20:48:47.183Z,19.80
2022-10-16T20:51:20.880Z,22.95
2022-10-16T20:53:52.340Z,20.90
2022-10-16T20:56:19.179Z,22.65
2022-10-16T20:58:46.227Z,18.90
2022-10-16T21:01:15.529Z,25.40
2022-10-16T21:03:43.156Z,19.25
2022-10-16T21:06:11.645Z,22.80
2022-10-16T21:08:40.827Z,32.63
2022-10-16T21:11:16.907Z,27.98
2022-10-16T21:13:44.358Z,23.02
2022-10-16T21:16:12.556Z,22.02
2022-10-16T21:18:44.089Z,19.00
2022-10-16T21:21:18.803Z,20.27
2022-10-16T21:23:45.939Z,17.45
2022-10-16T21:26:12.750Z,16.42
2022-10-16T21:28:39.698Z,18.80
2022-10-16T21:31:19.142Z,19.67
2022-10-16T21:33:46.845Z,16.85
2022-10-16T21:36:35.637Z,21.95
2022-10-16T21:39:08.945Z,21.83
2022-10-16T21:41:36.694Z,18.67
2022-10-16T21:44:04.148Z,19.80
2022-10-16T21:46:33.540Z,20.50
2022-10-16T21:49:03.244Z,17.13
2022-10-16T21:51:37.599Z,22.30
2022-10-16T21:54:07.321Z,19.65
2022-10-16T21:56:34.769Z,18.13
2022-10-16T21:59:02.062Z,19.90
2022-10-16T22:01:31.159Z,20.30
2022-10-16T22:03:58.835Z,20.58
2022-10-16T22:06:27.744Z,17.17
2022-10-16T22:09:00.209Z,21.48
2022-10-16T22:11:36.923Z,18.77
2022-10-16T22:14:16.619Z,20.92
2022-10-16T22:16:45.429Z,22.75
2022-10-16T22:19:13.950Z,20.40
2022-10-16T22:21:42.462Z,17.85
2022-10-16T22:24:10.075Z,18.48
2022-10-16T22:26:38.435Z,21.83
2022-10-16T22:29:07.294Z,22.95
2022-10-16T22:31:35.109Z,20.08
2022-10-16T22:34:04.544Z,22.17
2022-10-16T22:36:32.740Z,18.70
2022-10-16T22:39:01.400Z,20.98
2022-10-16T22:41:28.349Z,23.95
2022-10-16T22:43:55.535Z,18.60
2022-10-16T22:46:31.149Z,24.13
2022-10-16T22:48:58.449Z,20.05
2022-10-16T22:51:27.075Z,23.60
2022-10-16T22:53:54.664Z,23.15
2022-10-16T22:56:22.395Z,26.60
2022-10-16T22:58:49.934Z,21.30
2022-10-16T23:01:19.073Z,24.65
2022-10-16T23:03:46.092Z,17.30
2022-10-16T23:06:13.286Z,18.73
2022-10-16T23:08:41.492Z,19.42
2022-10-16T23:11:10.310Z,20.30
2022-10-16T23:13:38.804Z,21.52
2022-10-16T23:16:06.992Z,19.58
2022-10-16T23:18:34.662Z,27.40
2022-10-16T23:21:06.272Z,19.88
2022-10-16T23:23:35.959Z,20.67
2022-10-16T23:26:04.273Z,18.90
2022-10-16T23:28:32.422Z,20.03
2022-10-16T23:31:00.636Z,20.30
2022-10-16T23:33:27.617Z,19.65
2022-10-16T23:35:54.717Z,19.40
2022-10-16T23:38:21.849Z,21.58
2022-10-16T23:40:48.699Z,24.15
2022-10-16T23:43:15.613Z,27.77
2022-10-16T23:45:43.058Z,25.35
2022-10-16T23:48:10.116Z,25.83
2022-10-16T23:50:36.988Z,22.03
2022-10-16T23:53:06.571Z,25.03
2022-10-16T23:55:37.068Z,23.00
2022-10-16T23:58:04.348Z,25.95
